Time;durP1;ratioP1;P1;durP2;ratioP2;P2;SDS_P1;SDS_P2;PMS_P1;PMS_P2;Temp;Humidity;BMP_temperature;BMP_pressure;BME280_temperature;BME280_humidity;BME280_pressure;Samples;Min_cycle;Max_cycle;Signal;HPM_P1;HPM_P2
2024/03/20 00:00:06;;;;;;;30.08;17.92;;;;;;;8.04;77.21;99150.63;4989871;28;20116;-85
2024/03/20 00:02:31;;;;;;;30.05;16.13;;;;;;;8.10;77.24;99148.94;4992137;28;20030;-85
2024/03/20 00:04:56;;;;;;;31.15;17.70;;;;;;;8.14;76.90;99160.75;4976140;28;20034;-84
2024/03/20 00:07:22;;;;;;;29.40;16.20;;;;;;;8.12;77.77;99155.66;4978197;28;20034;-84
2024/03/20 00:09:47;;;;;;;26.85;17.17;;;;;;;8.10;77.57;99156.91;4978723;28;20030;-84
2024/03/20 00:12:14;;;;;;;31.65;18.38;;;;;;;8.16;77.28;99146.19;5013370;28;20078;-86
2024/03/20 00:14:39;;;;;;;29.13;16.08;;;;;;;8.12;77.20;99145.03;4994917;28;20049;-86
2024/03/20 00:17:07;;;;;;;31.92;17.42;;;;;;;8.06;77.12;99115.88;5008593;28;20026;-87
2024/03/20 00:19:33;;;;;;;39.47;18.50;;;;;;;7.79;78.08;99122.56;5014341;28;20119;-86
2024/03/20 00:21:58;;;;;;;33.45;17.52;;;;;;;7.43;79.00;99134.81;5011929;28;20030;-85
2024/03/20 00:24:24;;;;;;;35.40;19.52;;;;;;;6.98;80.69;99145.88;4959856;28;20713;-85
2024/03/20 00:26:50;;;;;;;36.85;18.95;;;;;;;6.63;83.37;99137.63;5014074;28;20034;-84
2024/03/20 00:29:16;;;;;;;36.08;20.23;;;;;;;6.03;84.28;99110.69;4982203;28;20033;-86
2024/03/20 00:31:42;;;;;;;34.20;19.27;;;;;;;6.42;83.08;99130.03;4996302;28;20113;-86
2024/03/20 00:34:07;;;;;;;39.75;19.20;;;;;;;6.49;82.74;99115.69;4997627;28;20054;-85
2024/03/20 00:36:33;;;;;;;34.78;18.33;;;;;;;7.16;80.90;99106.94;4961684;28;20033;-84
2024/03/20 00:38:59;;;;;;;33.42;17.27;;;;;;;7.91;78.94;99149.97;4997369;28;20025;-85
2024/03/20 00:41:24;;;;;;;33.67;17.17;;;;;;;7.75;77.68;99122.19;5011407;28;20056;-85
2024/03/20 00:43:50;;;;;;;30.35;17.70;;;;;;;7.74;77.48;99096.66;4979545;28;20034;-85
2024/03/20 00:46:15;;;;;;;31.00;18.20;;;;;;;7.62;77.49;99111.72;4980578;28;20412;-84
2024/03/20 00:48:41;;;;;;;31.00;18.13;;;;;;;7.89;77.43;99142.25;4994407;28;20040;-85
2024/03/20 00:51:06;;;;;;;29.05;17.00;;;;;;;7.47;78.13;99117.41;4964361;28;20026;-85
2024/03/20 00:53:32;;;;;;;32.88;18.80;;;;;;;7.52;78.73;99157.41;5012255;28;20053;-85
2024/03/20 00:55:57;;;;;;;31.50;17.90;;;;;;;7.90;77.40;99159.00;4994467;28;20098;-85
2024/03/20 00:58:22;;;;;;;35.17;19.08;;;;;;;6.51;81.43;99152.59;5008153;28;20057;-84
2024/03/20 01:00:49;;;;;;;33.13;17.13;;;;;;;7.29;81.45;99159.91;4978135;28;20076;-84
2024/03/20 01:03:14;;;;;;;27.83;17.23;;;;;;;7.73;78.81;99150.03;4966652;28;20023;-85
2024/03/20 01:05:41;;;;;;;28.23;17.10;;;;;;;7.72;77.90;99143.06;4990246;28;20507;-84
2024/03/20 01:08:06;;;;;;;31.52;17.92;;;;;;;7.73;77.50;99118.13;4989851;28;20608;-84
2024/03/20 01:10:32;;;;;;;31.58;16.27;;;;;;;7.82;77.50;99108.84;4993884;28;20017;-85
2024/03/20 01:12:57;;;;;;;30.90;17.08;;;;;;;7.60;77.57;99132.38;4994395;28;20041;-84
2024/03/20 01:15:22;;;;;;;39.70;19.63;;;;;;;5.85;82.54;99109.78;5002318;28;20030;-84
2024/03/20 01:17:48;;;;;;;30.17;17.17;;;;;;;6.95;82.59;99141.00;5006302;28;20026;-85
2024/03/20 01:20:13;;;;;;;33.33;16.85;;;;;;;7.54;78.25;99127.94;4977404;28;20034;-85
2024/03/20 01:22:39;;;;;;;31.02;15.75;;;;;;;7.73;77.77;99131.41;4978581;28;20445;-85
2024/03/20 01:25:05;;;;;;;27.50;16.73;;;;;;;7.71;77.71;99128.19;5006400;28;20030;-84
2024/03/20 01:27:31;;;;;;;26.92;15.07;;;;;;;7.85;76.98;99141.06;4988640;28;20056;-85
2024/03/20 01:29:56;;;;;;;29.45;16.05;;;;;;;7.61;76.65;99096.81;4994521;28;20033;-85
2024/03/20 01:32:22;;;;;;;27.55;15.38;;;;;;;7.75;76.96;99134.66;4961307;28;20405;-84
2024/03/20 01:34:47;;;;;;;31.02;16.90;;;;;;;7.78;76.80;99140.34;4993146;28;20088;-86
2024/03/20 01:37:13;;;;;;;26.95;15.95;;;;;;;7.36;77.00;99086.28;4986250;28;20341;-85
2024/03/20 01:39:38;;;;;;;27.27;14.95;;;;;;;7.53;77.41;99134.31;4986580;28;20330;-86
2024/03/20 01:42:04;;;;;;;27.48;15.93;;;;;;;7.62;77.78;99134.81;5006744;28;20026;-85
2024/03/20 01:44:29;;;;;;;26.23;13.75;;;;;;;7.65;76.77;99127.22;4980372;28;20124;-85
2024/03/20 01:46:54;;;;;;;27.13;16.00;;;;;;;7.68;77.20;99131.28;4993536;28;20034;-86
2024/03/20 01:49:20;;;;;;;33.97;16.10;;;;;;;7.50;76.41;99102.88;5009458;28;20506;-84
2024/03/20 01:51:45;;;;;;;22.88;13.80;;;;;;;7.52;77.19;99120.22;4977791;28;20228;-85
2024/03/20 01:54:12;;;;;;;29.40;15.65;;;;;;;7.51;77.30;99123.09;4999164;28;20026;-85
2024/03/20 01:56:38;;;;;;;25.63;15.00;;;;;;;7.56;76.99;99118.72;5006230;28;20393;-85
2024/03/20 01:59:03;;;;;;;26.70;13.30;;;;;;;7.46;76.74;99101.69;4977089;28;20044;-85
2024/03/20 02:01:29;;;;;;;32.53;16.13;;;;;;;6.57;78.79;99141.13;5004476;28;20041;-84
2024/03/20 02:03:57;;;;;;;29.25;17.83;;;;;;;5.78;83.29;99096.53;4992222;28;20072;-85
2024/03/20 02:06:25;;;;;;;28.08;16.45;;;;;;;7.07;78.88;99110.09;4963697;28;20037;-85
2024/03/20 02:08:52;;;;;;;29.00;15.73;;;;;;;7.47;78.14;99125.38;5006187;28;20037;-84
2024/03/20 02:11:19;;;;;;;27.65;15.82;;;;;;;7.42;76.87;99113.81;4971830;28;20124;-85
2024/03/20 02:13:53;;;;;;;29.60;15.88;;;;;;;7.37;77.63;99108.34;4993276;28;20037;-85
2024/03/20 02:16:20;;;;;;;25.77;14.40;;;;;;;7.45;77.28;99102.72;4979727;28;20406;-85
2024/03/20 02:18:47;;;;;;;26.73;15.00;;;;;;;7.60;77.06;99123.59;4966440;28;20475;-85
2024/03/20 02:21:17;;;;;;;26.40;14.25;;;;;;;7.17;77.85;99107.72;4973497;28;20059;-85
2024/03/20 02:23:43;;;;;;;29.80;14.32;;;;;;;7.28;77.28;99123.75;4990806;28;20117;-85
2024/03/20 02:26:09;;;;;;;26.75;13.98;;;;;;;6.61;80.92;99107.84;4979206;28;20108;-85
2024/03/20 02:28:40;;;;;;;23.25;13.95;;;;;;;7.52;78.20;99128.19;4965847;28;20054;-85
2024/03/20 02:31:09;;;;;;;26.92;14.45;;;;;;;7.64;77.46;99127.44;4989807;28;20490;-86
2024/03/20 02:33:36;;;;;;;26.75;14.48;;;;;;;7.74;77.52;99133.03;4996255;28;20028;-85
2024/03/20 02:36:02;;;;;;;25.10;14.10;;;;;;;7.73;76.64;99137.56;5010565;28;20592;-85
2024/03/20 02:38:34;;;;;;;29.63;14.43;;;;;;;7.59;77.74;99106.84;5013398;28;20109;-85
2024/03/20 02:41:00;;;;;;;25.30;13.35;;;;;;;7.79;77.34;99133.19;4977554;28;20030;-85
2024/03/20 02:43:27;;;;;;;25.45;14.05;;;;;;;7.66;77.73;99133.34;5011370;28;20033;-85
2024/03/20 02:45:53;;;;;;;22.98;14.10;;;;;;;7.67;77.85;99133.09;4997156;28;20032;-84
2024/03/20 02:48:18;;;;;;;24.92;13.20;;;;;;;7.60;77.16;99108.47;4986921;28;20429;-85
2024/03/20 02:50:44;;;;;;;23.45;14.25;;;;;;;7.76;77.81;99131.78;4994782;28;20034;-85
2024/03/20 02:53:10;;;;;;;26.08;15.20;;;;;;;7.17;78.04;99049.34;5011329;28;20072;-84
2024/03/20 02:55:37;;;;;;;25.58;14.35;;;;;;;7.56;77.90;99110.75;4989815;28;20084;-85
2024/03/20 02:58:03;;;;;;;24.60;13.40;;;;;;;7.73;77.71;99111.00;4982982;28;20075;-85
2024/03/20 03:00:29;;;;;;;26.17;14.52;;;;;;;7.78;77.81;99128.88;4978959;28;20117;-85
2024/03/20 03:02:56;;;;;;;24.98;13.93;;;;;;;7.77;77.63;99135.25;4992920;28;20034;-85
2024/03/20 03:05:22;;;;;;;26.80;14.32;;;;;;;7.71;77.59;99128.97;5007206;28;20030;-84
2024/03/20 03:07:48;;;;;;;21.55;14.10;;;;;;;7.29;79.19;99128.03;5012884;28;20037;-85
2024/03/20 03:10:15;;;;;;;25.20;14.20;;;;;;;7.63;79.17;99110.69;5011268;28;20169;-84
2024/03/20 03:12:41;;;;;;;25.95;13.27;;;;;;;7.62;77.82;99071.88;4994451;28;20026;-86
2024/03/20 03:15:07;;;;;;;24.42;13.18;;;;;;;7.90;77.96;99124.47;4989267;28;20038;-85
2024/03/20 03:17:32;;;;;;;26.20;14.60;;;;;;;7.86;77.75;99115.31;4991764;28;20512;-84
2024/03/20 03:19:58;;;;;;;30.30;16.52;;;;;;;7.30;79.76;99113.72;4991031;28;20125;-84
2024/03/20 03:22:23;;;;;;;23.38;13.73;;;;;;;7.57;79.26;99098.31;4992218;28;20145;-85
2024/03/20 03:24:48;;;;;;;23.75;13.25;;;;;;;7.84;78.42;99110.19;4994959;28;20429;-85
2024/03/20 03:27:14;;;;;;;26.38;13.73;;;;;;;7.67;79.29;99125.13;4985229;28;20388;-86
2024/03/20 03:29:39;;;;;;;44.25;17.42;;;;;;;6.85;83.22;99128.25;4977856;28;20030;-85
2024/03/20 03:32:05;;;;;;;31.08;17.52;;;;;;;6.48;84.24;99097.34;4996538;28;20521;-84
2024/03/20 03:34:31;;;;;;;27.13;13.93;;;;;;;7.18;82.73;99106.72;4963654;28;20029;-85
2024/03/20 03:36:56;;;;;;;27.30;14.68;;;;;;;7.37;81.06;99087.91;5014680;28;20084;-85
2024/03/20 03:39:21;;;;;;;26.35;12.65;;;;;;;7.71;80.17;99109.59;4991845;28;20065;-86
2024/03/20 03:41:47;;;;;;;26.10;15.57;;;;;;;7.54;79.71;99120.81;4994709;28;20105;-85
2024/03/20 03:44:13;;;;;;;27.15;14.57;;;;;;;7.52;80.11;99124.72;4974464;28;20258;-86
2024/03/20 03:46:38;;;;;;;39.03;18.48;;;;;;;6.86;80.46;99063.53;4993519;28;20037;-85
2024/03/20 03:49:03;;;;;;;27.45;14.93;;;;;;;6.73;83.72;99101.63;4964584;28;20064;-85
2024/03/20 03:51:29;;;;;;;32.33;17.42;;;;;;;6.64;84.35;99123.34;4993639;28;20034;-85
2024/03/20 03:53:55;;;;;;;28.23;15.77;;;;;;;6.67;84.46;99086.56;5013282;28;20030;-85
2024/03/20 03:56:20;;;;;;;27.38;15.40;;;;;;;7.50;80.88;99111.66;4977658;28;20033;-85
2024/03/20 03:58:46;;;;;;;26.50;15.18;;;;;;;7.77;78.86;99124.63;4996459;28;20561;-85
2024/03/20 04:01:13;;;;;;;22.05;14.25;;;;;;;7.72;79.21;99114.66;5007061;28;20486;-85
2024/03/20 04:03:39;;;;;;;28.73;14.80;;;;;;;7.65;79.14;99113.94;4997310;28;20029;-83
2024/03/20 04:06:04;;;;;;;31.98;15.45;;;;;;;7.56;78.65;99076.22;5001152;28;21329;-84
2024/03/20 04:08:30;;;;;;;28.40;15.27;;;;;;;7.65;78.68;99123.72;5013586;28;20105;-85
2024/03/20 04:10:55;;;;;;;30.40;17.05;;;;;;;7.57;78.61;99106.28;4993831;28;20033;-85
2024/03/20 04:13:20;;;;;;;30.95;15.57;;;;;;;7.37;79.35;99111.00;4991614;28;20025;-85
2024/03/20 04:15:46;;;;;;;28.15;16.05;;;;;;;7.38;79.48;99117.94;4976729;28;20092;-84
2024/03/20 04:18:11;;;;;;;29.38;15.75;;;;;;;7.50;79.01;99114.31;4977493;28;20038;-85
2024/03/20 04:20:37;;;;;;;25.83;15.80;;;;;;;7.57;79.05;99122.22;5010013;28;20025;-84
2024/03/20 04:23:02;;;;;;;28.10;15.75;;;;;;;7.37;78.22;99082.59;4994239;28;20025;-83
2024/03/20 04:25:29;;;;;;;30.38;17.33;;;;;;;7.55;78.12;99111.81;5008726;28;20045;-85
2024/03/20 04:27:55;;;;;;;31.45;17.35;;;;;;;7.56;78.57;99117.91;5013307;28;20108;-85
2024/03/20 04:30:21;;;;;;;31.40;17.50;;;;;;;7.58;78.15;99121.97;4991849;28;20394;-85
2024/03/20 04:32:47;;;;;;;31.10;17.23;;;;;;;7.49;78.47;99114.53;4992985;28;20071;-85
2024/03/20 04:35:13;;;;;;;32.58;16.95;;;;;;;7.28;78.44;99091.06;4992378;28;20041;-85
2024/03/20 04:37:39;;;;;;;32.85;16.42;;;;;;;7.29;78.46;99100.66;4994241;28;20030;-86
2024/03/20 04:40:06;;;;;;;32.55;18.17;;;;;;;7.19;78.67;99082.59;4973488;28;20038;-86
2024/03/20 04:42:33;;;;;;;36.83;17.38;;;;;;;7.44;78.58;99119.69;4988521;28;20030;-85
2024/03/20 04:44:59;;;;;;;31.40;17.73;;;;;;;6.97;80.09;99121.19;5008214;28;20639;-86
2024/03/20 04:47:24;;;;;;;43.10;21.63;;;;;;;5.82;83.60;99121.56;4970438;28;20031;-86
2024/03/20 04:49:50;;;;;;;37.20;21.15;;;;;;;5.93;84.29;99107.69;5009816;28;20037;-86
2024/03/20 04:52:15;;;;;;;33.70;17.25;;;;;;;6.66;81.84;99110.66;5015060;28;20029;-84
2024/03/20 04:54:41;;;;;;;31.17;18.50;;;;;;;7.29;79.39;99119.25;4996284;28;20091;-84
2024/03/20 04:57:06;;;;;;;28.27;16.52;;;;;;;7.25;78.74;99110.91;4977348;28;20045;-84
2024/03/20 04:59:31;;;;;;;30.15;17.13;;;;;;;7.19;78.25;99090.56;4982868;28;20026;-85
2024/03/20 05:01:57;;;;;;;33.70;17.17;;;;;;;7.32;78.12;99103.69;4983590;28;20093;-83
2024/03/20 05:04:22;;;;;;;32.30;17.77;;;;;;;6.83;78.05;99040.13;4979160;28;20022;-85
2024/03/20 05:06:48;;;;;;;29.85;17.23;;;;;;;7.34;78.39;99136.13;4966157;28;20524;-85
2024/03/20 05:09:13;;;;;;;36.88;19.95;;;;;;;6.54;79.94;99120.34;4979520;28;20049;-84
2024/03/20 05:11:39;;;;;;;34.35;18.65;;;;;;;6.32;82.44;99129.66;4980078;28;20029;-85
2024/03/20 05:14:04;;;;;;;32.65;18.02;;;;;;;7.08;80.07;99135.56;4981722;28;20041;-85
2024/03/20 05:16:30;;;;;;;30.75;17.33;;;;;;;7.17;78.82;99119.16;4977620;28;20145;-85
2024/03/20 05:18:55;;;;;;;35.30;17.90;;;;;;;7.04;78.31;99091.94;4990315;28;20121;-85
2024/03/20 05:21:20;;;;;;;33.20;17.27;;;;;;;7.30;78.52;99134.94;4989897;28;20096;-86
2024/03/20 05:23:46;;;;;;;33.70;17.90;;;;;;;6.87;78.59;99090.88;4988947;28;20065;-85
2024/03/20 05:26:11;;;;;;;34.90;17.15;;;;;;;7.06;79.09;99122.53;5004734;28;20026;-83
2024/03/20 05:28:37;;;;;;;32.03;17.73;;;;;;;6.98;78.38;99135.28;4974790;28;20033;-84
2024/03/20 05:31:02;;;;;;;33.42;18.27;;;;;;;7.10;78.43;99137.00;4985816;28;20044;-84
2024/03/20 05:33:28;;;;;;;27.60;16.75;;;;;;;7.10;78.76;99139.66;4989717;28;20397;-84
2024/03/20 05:35:53;;;;;;;34.97;18.38;;;;;;;7.07;79.54;99132.13;4989521;28;20033;-85
2024/03/20 05:38:19;;;;;;;34.05;17.92;;;;;;;7.13;78.47;99141.06;4985304;28;20034;-85
2024/03/20 05:40:44;;;;;;;31.88;17.35;;;;;;;7.15;79.14;99142.47;4988292;28;20037;-84
2024/03/20 05:43:09;;;;;;;34.20;19.45;;;;;;;6.80;79.14;99125.44;4976617;28;20029;-84
2024/03/20 05:45:35;;;;;;;37.75;19.15;;;;;;;7.01;79.25;99125.03;5003603;28;20712;-84
2024/03/20 05:48:00;;;;;;;33.72;18.13;;;;;;;6.99;78.71;99121.78;4992925;28;20049;-84
2024/03/20 05:50:26;;;;;;;38.05;19.63;;;;;;;7.20;78.93;99150.59;4990744;28;20117;-84
2024/03/20 05:52:54;;;;;;;32.45;18.13;;;;;;;7.02;78.89;99124.00;4977103;28;20117;-84
2024/03/20 05:55:24;;;;;;;30.17;17.58;;;;;;;7.21;78.39;99160.16;4961031;28;20120;-84
2024/03/20 05:57:52;;;;;;;34.58;21.05;;;;;;;7.27;78.88;99151.31;4974109;28;20037;-84
2024/03/20 06:00:25;;;;;;;39.63;18.17;;;;;;;7.23;79.00;99152.78;4990291;28;20717;-84
2024/03/20 06:02:53;;;;;;;33.42;19.52;;;;;;;6.62;79.47;99125.38;4977465;28;20037;-84
2024/03/20 06:05:18;;;;;;;41.67;21.83;;;;;;;5.82;83.54;99118.94;4992716;28;20026;-85
2024/03/20 06:07:44;;;;;;;39.10;20.33;;;;;;;6.60;82.45;99156.59;4986101;28;20038;-87
2024/03/20 06:10:10;;;;;;;36.15;19.35;;;;;;;6.69;80.38;99110.22;4974073;28;20034;-86
2024/03/20 06:12:36;;;;;;;40.55;20.30;;;;;;;6.15;84.09;99163.00;4975758;28;20022;-86
2024/03/20 06:15:02;;;;;;;50.47;22.13;;;;;;;5.76;85.54;99140.97;4983192;28;20034;-85
2024/03/20 06:17:28;;;;;;;47.65;23.42;;;;;;;6.07;84.17;99170.19;4996684;28;20034;-86
2024/03/20 06:19:56;;;;;;;38.97;20.00;;;;;;;6.68;83.08;99170.41;4993026;28;20122;-85
2024/03/20 06:22:21;;;;;;;36.00;19.83;;;;;;;6.26;82.05;99077.53;5005412;28;20026;-85
2024/03/20 06:24:47;;;;;;;38.30;18.70;;;;;;;6.26;81.64;99061.63;5012375;28;20046;-85
2024/03/20 06:27:12;;;;;;;34.80;17.77;;;;;;;7.25;79.69;99164.00;5013220;28;20030;-86
2024/03/20 06:29:37;;;;;;;38.55;19.83;;;;;;;7.30;80.05;99164.16;4992008;28;20029;-85
2024/03/20 06:32:03;;;;;;;36.42;19.35;;;;;;;7.25;79.80;99152.59;5011898;28;20390;-85
2024/03/20 06:34:28;;;;;;;37.05;19.60;;;;;;;7.11;80.08;99113.91;4998377;28;20037;-86
2024/03/20 06:36:54;;;;;;;35.45;18.23;;;;;;;7.34;79.15;99156.56;4991960;28;20062;-86
2024/03/20 06:39:20;;;;;;;35.83;19.60;;;;;;;6.90;81.07;99154.94;4974404;28;20026;-86
2024/03/20 06:41:46;;;;;;;33.65;18.33;;;;;;;7.29;80.15;99165.22;4993501;28;20026;-85
2024/03/20 06:44:14;;;;;;;37.42;17.83;;;;;;;7.14;80.19;99154.09;4994396;28;20045;-85
2024/03/20 06:46:40;;;;;;;34.88;18.88;;;;;;;6.98;79.83;99120.19;4992954;28;20077;-85
2024/03/20 06:49:10;;;;;;;32.65;17.83;;;;;;;7.13;79.61;99156.97;5007260;28;21348;-86
2024/03/20 06:51:39;;;;;;;37.92;20.27;;;;;;;7.19;80.20;99159.56;4997756;28;20113;-86
2024/03/20 06:54:16;;;;;;;35.72;19.88;;;;;;;7.22;80.49;99167.09;4997712;28;20094;-86
2024/03/20 06:56:48;;;;;;;30.73;17.83;;;;;;;7.24;81.21;99174.84;4993755;28;20026;-86
2024/03/20 06:59:16;;;;;;;40.55;20.45;;;;;;;7.21;81.63;99184.06;4971982;28;20037;-86
2024/03/20 07:01:41;;;;;;;35.10;18.38;;;;;;;7.31;80.46;99176.41;4996777;28;20022;-86
2024/03/20 07:04:07;;;;;;;39.83;20.23;;;;;;;7.41;81.00;99179.38;4990795;28;20084;-86
2024/03/20 07:06:32;;;;;;;33.58;19.85;;;;;;;7.56;80.02;99177.16;4975956;28;20066;-86
2024/03/20 07:08:57;;;;;;;31.85;18.77;;;;;;;7.55;80.95;99180.06;4989242;28;20030;-86
2024/03/20 07:11:23;;;;;;;33.63;19.88;;;;;;;7.60;80.24;99188.16;4994575;28;20026;-85
2024/03/20 07:13:48;;;;;;;33.88;18.90;;;;;;;7.70;80.91;99187.66;4987817;28;20049;-86
2024/03/20 07:16:13;;;;;;;39.03;21.67;;;;;;;7.38;83.26;99153.25;4996253;28;20064;-85
2024/03/20 07:18:39;;;;;;;40.42;21.77;;;;;;;7.64;82.51;99185.88;4990709;28;20515;-86
2024/03/20 07:21:04;;;;;;;34.15;18.17;;;;;;;7.80;81.31;99190.63;5012205;28;20025;-86
2024/03/20 07:23:30;;;;;;;36.83;20.20;;;;;;;7.81;80.41;99187.72;4994792;28;20188;-85
2024/03/20 07:25:55;;;;;;;37.05;20.35;;;;;;;7.76;80.91;99162.84;4995085;28;20025;-85
2024/03/20 07:28:21;;;;;;;31.73;18.70;;;;;;;7.67;82.56;99182.75;4995572;28;20417;-86
2024/03/20 07:30:46;;;;;;;37.92;20.13;;;;;;;7.96;79.99;99177.53;5015617;28;20080;-86
2024/03/20 07:33:12;;;;;;;36.97;20.02;;;;;;;7.87;81.38;99167.41;4985119;28;20026;-85
2024/03/20 07:35:46;;;;;;;36.75;19.67;;;;;;;8.06;79.98;99171.69;5016880;28;20030;-86
2024/03/20 07:38:13;;;;;;;32.42;19.35;;;;;;;8.08;80.13;99185.56;4995145;28;20053;-86
2024/03/20 07:40:40;;;;;;;32.08;19.52;;;;;;;8.11;80.38;99177.13;4995430;28;20402;-86
2024/03/20 07:43:06;;;;;;;42.53;23.17;;;;;;;7.84;84.28;99173.19;4996592;28;20036;-85
2024/03/20 07:45:32;;;;;;;39.53;22.52;;;;;;;7.69;84.39;99146.97;4987779;28;20026;-86
2024/03/20 07:47:59;;;;;;;39.95;22.23;;;;;;;8.01;84.24;99190.97;4992712;28;20030;-86
2024/03/20 07:50:24;;;;;;;32.70;18.35;;;;;;;8.09;82.32;99188.00;4993498;28;20033;-86
2024/03/20 07:52:50;;;;;;;35.45;18.83;;;;;;;8.38;79.80;99189.06;4980771;28;20038;-86
2024/03/20 07:55:15;;;;;;;33.17;18.67;;;;;;;8.35;79.01;99168.25;4996149;28;20121;-86
2024/03/20 07:57:40;;;;;;;33.80;19.58;;;;;;;8.54;79.18;99198.28;4999802;28;20029;-86
2024/03/20 08:00:08;;;;;;;38.60;22.17;;;;;;;8.28;80.66;99180.81;4998201;28;20042;-86
2024/03/20 08:02:33;;;;;;;34.13;19.75;;;;;;;8.17;80.58;99152.28;5000146;28;20610;-86
2024/03/20 08:04:59;;;;;;;35.92;19.52;;;;;;;8.28;80.78;99170.19;4970850;28;20030;-86
2024/03/20 08:07:24;;;;;;;35.42;20.48;;;;;;;8.55;79.16;99181.25;4977641;28;20026;-86
2024/03/20 08:09:50;;;;;;;32.47;18.58;;;;;;;8.75;79.38;99193.25;4982427;28;20116;-86
2024/03/20 08:12:15;;;;;;;42.97;21.17;;;;;;;8.60;81.66;99184.88;4976662;28;20164;-86
2024/03/20 08:14:41;;;;;;;36.08;18.75;;;;;;;8.79;79.94;99201.56;5014242;28;20064;-86
2024/03/20 08:17:08;;;;;;;29.20;18.52;;;;;;;8.78;79.47;99203.41;5016236;28;20042;-85
2024/03/20 08:19:33;;;;;;;31.75;17.83;;;;;;;8.87;78.49;99191.41;4980775;28;20053;-86
2024/03/20 08:21:59;;;;;;;35.05;20.35;;;;;;;8.77;78.62;99172.53;4983691;28;20029;-86
2024/03/20 08:24:24;;;;;;;34.20;20.25;;;;;;;8.99;78.80;99205.56;4972780;28;21059;-85
2024/03/20 08:26:49;;;;;;;33.60;19.27;;;;;;;9.09;79.39;99196.97;4999721;28;20030;-86
2024/03/20 08:29:15;;;;;;;30.70;19.15;;;;;;;9.11;78.57;99196.78;4995445;28;20030;-86
2024/03/20 08:31:41;;;;;;;35.63;20.67;;;;;;;9.10;79.34;99200.47;4995277;28;20076;-85
2024/03/20 08:34:06;;;;;;;35.05;19.67;;;;;;;9.31;78.74;99199.88;5013343;28;20033;-86
2024/03/20 08:36:33;;;;;;;29.23;18.60;;;;;;;9.32;80.34;99209.53;4961302;28;20046;-86
2024/03/20 08:38:59;;;;;;;35.88;21.02;;;;;;;8.99;80.62;99156.81;5015594;28;20113;-86
2024/03/20 08:41:24;;;;;;;32.17;17.63;;;;;;;9.32;78.92;99198.88;4967435;28;20405;-86
2024/03/20 08:43:50;;;;;;;37.13;20.80;;;;;;;9.09;80.72;99162.38;4978225;28;20077;-86
2024/03/20 08:46:17;;;;;;;34.90;18.67;;;;;;;9.40;80.83;99195.84;4997996;28;20083;-86
2024/03/20 08:48:43;;;;;;;36.67;20.88;;;;;;;9.43;80.43;99192.72;4993812;28;20022;-85
2024/03/20 08:51:09;;;;;;;31.98;18.17;;;;;;;9.37;80.38;99196.31;5009228;28;20034;-86
2024/03/20 08:53:35;;;;;;;29.13;17.77;;;;;;;9.42;79.83;99196.41;4998759;28;20342;-86
2024/03/20 08:56:00;;;;;;;34.53;20.88;;;;;;;9.29;83.31;99192.13;5014785;28;20041;-86
2024/03/20 08:58:26;;;;;;;32.00;19.00;;;;;;;9.36;81.23;99189.34;4995972;28;20238;-86
2024/03/20 09:00:53;;;;;;;31.90;18.85;;;;;;;9.38;80.37;99176.63;4999183;28;20022;-85
2024/03/20 09:03:19;;;;;;;50.03;22.02;;;;;;;9.47;82.96;99213.34;4982524;28;20431;-86
2024/03/20 09:05:44;;;;;;;26.85;17.20;;;;;;;9.47;79.78;99178.72;5009642;28;20137;-85
2024/03/20 09:08:10;;;;;;;30.52;17.92;;;;;;;9.54;80.40;99187.41;4996956;28;20025;-86
2024/03/20 09:10:36;;;;;;;29.77;17.77;;;;;;;9.79;78.76;99205.78;5007672;28;20038;-84
2024/03/20 09:13:05;;;;;;;31.65;20.45;;;;;;;9.87;79.93;99201.94;5004301;28;20041;-86
2024/03/20 09:15:30;;;;;;;31.35;19.95;;;;;;;10.03;79.55;99203.84;4989540;28;20531;-86
2024/03/20 09:17:56;;;;;;;27.88;16.73;;;;;;;10.12;78.78;99216.63;4981940;28;20125;-86
2024/03/20 09:20:25;;;;;;;29.80;17.48;;;;;;;10.20;77.49;99192.25;5002685;28;20030;-86
2024/03/20 09:22:52;;;;;;;30.13;18.15;;;;;;;10.20;77.59;99170.13;4989963;28;20038;-86
2024/03/20 09:25:19;;;;;;;27.17;17.23;;;;;;;10.34;77.48;99188.25;4980475;28;20101;-86
2024/03/20 09:27:45;;;;;;;31.83;20.00;;;;;;;10.68;79.30;99213.16;5006619;28;20034;-85
2024/03/20 09:30:15;;;;;;;28.77;17.80;;;;;;;10.80;76.91;99208.56;4977906;28;20036;-86
2024/03/20 09:32:44;;;;;;;25.85;16.90;;;;;;;10.74;76.12;99169.50;5008825;28;20108;-86
2024/03/20 09:35:10;;;;;;;31.05;19.33;;;;;;;10.97;79.33;99171.19;4996228;28;20120;-86
2024/03/20 09:37:36;;;;;;;35.63;19.75;;;;;;;11.09;77.89;99178.09;4963825;28;20030;-86
2024/03/20 09:40:06;;;;;;;27.90;18.83;;;;;;;11.32;76.48;99177.09;4977879;28;20034;-86
2024/03/20 09:42:32;;;;;;;29.80;19.77;;;;;;;11.48;76.89;99194.97;4997895;28;20069;-85
2024/03/20 09:44:59;;;;;;;24.88;16.67;;;;;;;11.55;74.71;99190.28;4978231;28;20037;-86
2024/03/20 09:47:25;;;;;;;24.15;16.67;;;;;;;11.48;74.97;99168.25;5008945;28;20040;-86
2024/03/20 09:49:57;;;;;;;29.35;17.50;;;;;;;11.54;76.87;99167.25;5014114;28;20032;-86
2024/03/20 09:52:24;;;;;;;25.73;17.67;;;;;;;11.74;75.55;99180.94;4991759;28;20026;-85
2024/03/20 09:54:50;;;;;;;36.70;20.10;;;;;;;11.57;76.67;99134.69;4998142;28;20037;-86
2024/03/20 09:57:15;;;;;;;26.17;17.08;;;;;;;11.72;75.96;99180.38;4978769;28;20030;-86
2024/03/20 09:59:47;;;;;;;20.77;15.38;;;;;;;11.62;74.67;99160.69;4982527;28;20393;-86
2024/03/20 10:02:12;;;;;;;24.73;16.75;;;;;;;11.57;75.13;99134.69;4993147;28;20041;-86
2024/03/20 10:04:39;;;;;;;25.13;16.85;;;;;;;11.62;75.91;99132.06;4990147;28;20439;-86
2024/03/20 10:07:14;;;;;;;31.20;18.60;;;;;;;11.92;75.80;99175.28;4991637;28;20033;-86
2024/03/20 10:09:41;;;;;;;26.85;16.65;;;;;;;11.75;74.96;99145.09;4997935;28;20030;-86
2024/03/20 10:12:12;;;;;;;28.30;18.23;;;;;;;11.90;76.17;99165.91;4982088;28;20776;-86
2024/03/20 10:14:38;;;;;;;27.13;16.00;;;;;;;12.02;75.45;99171.91;4994224;28;20033;-86
2024/03/20 10:17:14;;;;;;;27.92;15.82;;;;;;;11.95;74.79;99153.38;4980222;28;20547;-86
2024/03/20 10:19:43;;;;;;;27.13;17.13;;;;;;;11.97;74.15;99132.53;5011821;28;20118;-86
2024/03/20 10:22:09;;;;;;;32.65;19.20;;;;;;;11.61;76.82;99090.34;4995088;28;20397;-86
2024/03/20 10:24:35;;;;;;;24.20;16.40;;;;;;;12.22;74.93;99160.63;4992143;28;20030;-86
2024/03/20 10:27:05;;;;;;;22.88;17.02;;;;;;;12.11;75.70;99127.59;5015349;28;20053;-85
2024/03/20 10:29:32;;;;;;;24.10;15.50;;;;;;;12.13;74.69;99122.00;5014801;28;20018;-86
2024/03/20 10:31:58;;;;;;;24.15;17.15;;;;;;;12.17;74.70;99117.75;4980440;28;20059;-85
2024/03/20 10:34:25;;;;;;;28.45;17.13;;;;;;;12.49;74.69;99154.22;5012506;28;20104;-86
2024/03/20 10:36:51;;;;;;;26.70;17.88;;;;;;;12.56;74.34;99154.00;4988866;28;20038;-85
2024/03/20 10:39:23;;;;;;;25.45;17.58;;;;;;;12.51;75.34;99137.91;4977841;28;20037;-86
2024/03/20 10:41:50;;;;;;;23.10;14.50;;;;;;;12.70;73.54;99149.88;5009387;28;20018;-86
2024/03/20 10:44:18;;;;;;;28.33;17.85;;;;;;;12.80;74.44;99152.63;4988480;28;20034;-86
2024/03/20 10:46:48;;;;;;;28.42;18.80;;;;;;;12.75;74.54;99144.56;5000195;28;20038;-86
2024/03/20 10:49:18;;;;;;;20.70;14.45;;;;;;;12.93;73.27;99148.72;5018384;28;20096;-86
2024/03/20 10:51:44;;;;;;;31.63;18.60;;;;;;;12.71;74.68;99112.13;4985327;28;20033;-86
2024/03/20 10:54:11;;;;;;;24.60;14.93;;;;;;;13.07;73.62;99148.06;4982943;28;20061;-85
2024/03/20 10:56:46;;;;;;;27.67;18.50;;;;;;;13.01;71.83;99143.72;4984519;28;20501;-86
2024/03/20 10:59:18;;;;;;;33.88;17.05;;;;;;;13.10;73.56;99144.06;5016319;28;20677;-86
2024/03/20 11:02:04;;;;;;;23.30;14.80;;;;;;;13.01;73.21;99118.78;4993614;28;20100;-85
2024/03/20 11:04:41;;;;;;;28.95;18.73;;;;;;;13.21;73.69;99138.53;5000816;28;20084;-86
2024/03/20 11:07:23;;;;;;;27.40;17.20;;;;;;;13.32;72.57;99142.88;4979207;28;20054;-86
2024/03/20 11:09:50;;;;;;;19.35;12.55;;;;;;;13.05;73.28;99080.53;5014175;28;20026;-86
2024/03/20 11:12:30;;;;;;;18.52;13.20;;;;;;;13.55;72.24;99141.66;4996618;28;20041;-85
2024/03/20 11:15:06;;;;;;;18.95;12.00;;;;;;;13.56;72.33;99145.16;4995983;28;20176;-86
2024/03/20 11:17:38;;;;;;;18.27;13.52;;;;;;;13.63;70.69;99137.69;5012131;28;20041;-87
2024/03/20 11:20:32;;;;;;;16.75;13.10;;;;;;;13.75;70.36;99143.63;4963667;28;20037;-80